createdAt,value
2023-04-16T00:02:19.964Z,5.93
2023-04-16T00:04:49.227Z,6.15
2023-04-16T00:07:18.112Z,6.20
2023-04-16T00:09:45.805Z,5.88
2023-04-16T00:12:15.033Z,5.97
2023-04-16T00:14:42.885Z,6.20
2023-04-16T00:17:10.456Z,5.93
2023-04-16T00:19:38.249Z,6.18
2023-04-16T00:22:22.760Z,6.07
2023-04-16T00:27:59.696Z,5.35
2023-04-16T00:30:34.861Z,6.25
2023-04-16T00:33:06.281Z,7.03
2023-04-16T00:35:53.785Z,5.80
2023-04-16T00:39:09.138Z,6.18
2023-04-16T00:42:02.505Z,5.80
2023-04-16T22:22:02.511Z,3.15
2023-04-16T22:27:21.652Z,2.67
2023-04-16T22:33:38.470Z,3.03
2023-04-16T22:36:26.195Z,2.95
2023-04-16T22:39:04.098Z,3.10
2023-04-16T22:42:00.635Z,3.20
2023-04-16T22:47:50.704Z,2.58
2023-04-16T22:50:36.927Z,3.00
2023-04-16T22:59:54.926Z,3.05
2023-04-16T23:02:59.902Z,2.28
2023-04-16T23:06:04.620Z,2.95
2023-04-16T23:09:01.289Z,3.33
2023-04-16T23:11:38.020Z,2.33
2023-04-16T23:14:50.638Z,2.65
2023-04-16T23:17:40.920Z,2.88
2023-04-16T23:21:03.844Z,2.72
2023-04-16T23:24:08.044Z,2.67
2023-04-16T23:27:17.105Z,2.70
2023-04-16T23:30:00.134Z,3.08
2023-04-16T23:32:51.050Z,2.90
2023-04-16T23:35:59.175Z,2.80
2023-04-16T23:38:43.514Z,3.17
2023-04-16T23:41:23.862Z,3.10
2023-04-16T23:44:16.250Z,2.50
2023-04-16T23:47:17.202Z,2.90
2023-04-16T23:53:35.803Z,2.65
2023-04-16T23:56:41.172Z,3.10
